Time;durP1;ratioP1;P1;durP2;ratioP2;P2;SDS_P1;SDS_P2;PMS_P1;PMS_P2;Temp;Humidity;BMP_temperature;BMP_pressure;BME280_temperature;BME280_humidity;BME280_pressure;Samples;Min_cycle;Max_cycle;Signal;HPM_P1;HPM_P2
2021/12/25 00:02:16;;;;;;;8.80;2.30;;;;;;;-7.41;81.54;99827.63;5030694;28;20076;-67
2021/12/25 00:04:47;;;;;;;7.50;2.40;;;;;;;-7.46;81.47;99834.16;5032094;28;20081;-69
2021/12/25 00:07:18;;;;;;;4.55;2.28;;;;;;;-7.55;81.66;99813.38;5017483;28;20061;-68
2021/12/25 00:09:49;;;;;;;5.25;1.63;;;;;;;-7.87;81.61;99744.19;5017580;28;20053;-68
2021/12/25 00:12:21;;;;;;;8.88;2.47;;;;;;;-7.58;82.04;99798.03;5017489;28;20366;-68
2021/12/25 00:14:52;;;;;;;9.73;2.22;;;;;;;-7.90;82.00;99744.06;5017523;28;20049;-68
2021/12/25 00:17:23;;;;;;;10.95;1.63;;;;;;;-7.52;82.08;99803.38;5017202;28;20104;-68
2021/12/25 00:19:54;;;;;;;5.68;2.30;;;;;;;-7.51;81.74;99801.72;5028357;28;20050;-68
2021/12/25 00:22:25;;;;;;;8.63;2.20;;;;;;;-7.45;82.12;99809.63;5026723;28;20294;-68
2021/12/25 00:24:56;;;;;;;6.32;2.08;;;;;;;-7.73;81.73;99766.84;5017306;28;20100;-66
2021/12/25 00:27:43;;;;;;;9.40;2.40;;;;;;;-7.55;81.85;99798.16;5017184;28;20058;-67
2021/12/25 00:30:22;;;;;;;3.00;1.42;;;;;;;-7.57;81.77;99801.44;5017201;28;20057;-67
2021/12/25 00:32:58;;;;;;;2.45;1.40;;;;;;;-7.64;81.90;99782.50;5023459;28;20084;-68
2021/12/25 00:35:29;;;;;;;7.88;1.85;;;;;;;-7.57;81.49;99794.69;5030446;28;20053;-66
2021/12/25 00:37:59;;;;;;;4.95;1.95;;;;;;;-7.60;81.53;99794.53;5036746;28;20073;-66
2021/12/25 00:40:30;;;;;;;6.07;2.00;;;;;;;-7.54;81.58;99789.75;5021300;28;20126;-66
2021/12/25 00:43:02;;;;;;;3.03;1.70;;;;;;;-7.56;81.52;99783.75;5017177;28;20113;-66
2021/12/25 00:45:33;;;;;;;7.60;2.15;;;;;;;-7.57;81.84;99771.84;5016871;28;20080;-66
2021/12/25 00:48:05;;;;;;;7.80;2.05;;;;;;;-7.58;81.14;99772.66;5022013;28;20379;-67
2021/12/25 00:50:35;;;;;;;5.50;1.77;;;;;;;-7.60;81.57;99770.03;5017050;28;20058;-68
2021/12/25 00:53:06;;;;;;;10.70;2.10;;;;;;;-7.50;81.37;99776.41;5030988;28;20235;-67
2021/12/25 00:55:37;;;;;;;7.40;1.85;;;;;;;-7.58;81.44;99772.66;5036581;28;20248;-66
2021/12/25 00:58:09;;;;;;;4.30;2.00;;;;;;;-7.51;81.41;99764.53;5032931;28;20477;-66
2021/12/25 01:00:40;;;;;;;6.40;2.15;;;;;;;-7.48;81.43;99758.75;5016682;28;20237;-66
2021/12/25 01:03:12;;;;;;;5.68;1.77;;;;;;;-7.51;80.94;99746.78;5020550;28;20053;-66
2021/12/25 01:05:42;;;;;;;4.97;1.95;;;;;;;-7.47;80.98;99741.03;5020598;28;20054;-67
2021/12/25 01:08:13;;;;;;;5.65;2.10;;;;;;;-7.49;80.12;99722.31;5020577;28;20558;-67
2021/12/25 01:10:44;;;;;;;5.93;2.13;;;;;;;-7.47;80.24;99735.09;5020452;28;20264;-67
2021/12/25 01:13:23;;;;;;;5.35;2.20;;;;;;;-7.47;81.06;99725.81;5020604;28;20264;-67
2021/12/25 01:16:06;;;;;;;3.03;1.70;;;;;;;-7.68;80.81;99695.22;5020563;28;20109;-67
2021/12/25 01:27:49;;;;;;;;;;;;;;;-7.48;80.48;99719.00;4974832;28;20061;-69
2021/12/25 01:30:31;;;;;;;8.45;2.67;;;;;;;-7.51;80.51;99718.88;5029696;28;19925;-69
2021/12/25 01:36:25;;;;;;;6.95;1.98;;;;;;;-7.56;80.21;99700.03;5032850;28;20588;-69
2021/12/25 01:39:00;;;;;;;6.65;1.88;;;;;;;-7.58;80.52;99686.38;5036520;28;20060;-68
2021/12/25 01:41:57;;;;;;;3.75;1.77;;;;;;;-7.62;80.61;99694.66;5020096;28;20064;-69
2021/12/25 01:50:08;;;;;;;4.35;1.88;;;;;;;-7.67;80.21;99670.72;5019928;28;20079;-67
2021/12/25 01:52:39;;;;;;;9.25;2.47;;;;;;;-7.97;80.22;99605.09;5019907;28;20099;-67
2021/12/25 01:55:15;;;;;;;4.82;1.60;;;;;;;-7.81;80.18;99632.06;5019672;28;20077;-67
2021/12/25 01:57:46;;;;;;;7.10;2.22;;;;;;;-7.78;80.44;99636.41;5019593;28;20117;-66
2021/12/25 02:00:21;;;;;;;8.38;3.22;;;;;;;-7.72;80.25;99642.59;5026958;28;20072;-67
2021/12/25 02:02:54;;;;;;;6.85;1.95;;;;;;;-7.72;80.38;99646.81;5034950;28;20449;-67
2021/12/25 02:05:25;;;;;;;7.60;1.90;;;;;;;-7.77;80.67;99638.13;5036009;28;20057;-67
2021/12/25 02:08:17;;;;;;;4.30;1.80;;;;;;;-7.97;80.80;99600.03;5037262;28;20041;-66
2021/12/25 02:10:48;;;;;;;4.28;1.77;;;;;;;-7.81;80.50;99610.09;5038374;28;20056;-67
2021/12/25 02:13:19;;;;;;;7.50;1.98;;;;;;;-8.04;80.42;99582.78;5038667;28;20103;-69
2021/12/25 02:15:52;;;;;;;5.65;1.73;;;;;;;-7.68;80.04;99633.50;5039120;28;20116;-68
2021/12/25 02:18:29;;;;;;;2.50;1.63;;;;;;;-7.70;79.64;99627.47;5038887;28;20049;-68
2021/12/25 02:21:09;;;;;;;6.75;1.85;;;;;;;-7.85;78.28;99615.81;5039229;28;20058;-67
2021/12/25 02:23:41;;;;;;;3.67;1.85;;;;;;;-7.86;77.66;99598.88;5039065;28;20288;-67
2021/12/25 02:26:12;;;;;;;2.42;1.52;;;;;;;-7.67;77.95;99609.84;5038768;28;20140;-68
2021/12/25 02:28:43;;;;;;;1.98;1.60;;;;;;;-7.91;77.23;99559.75;5038804;28;20046;-67
2021/12/25 02:31:16;;;;;;;5.72;1.80;;;;;;;-7.64;77.47;99597.28;5038440;28;20109;-68
2021/12/25 02:33:47;;;;;;;4.97;1.67;;;;;;;-7.70;77.15;99580.13;5038828;28;20057;-68
2021/12/25 02:36:20;;;;;;;4.00;2.03;;;;;;;-7.66;77.02;99593.81;5038099;28;20075;-67
2021/12/25 02:38:52;;;;;;;4.85;2.00;;;;;;;-8.04;77.30;99532.09;5038606;28;20241;-68
2021/12/25 02:41:23;;;;;;;4.03;1.83;;;;;;;-7.83;77.72;99576.19;5038727;28;20144;-68
2021/12/25 02:43:54;;;;;;;6.28;2.10;;;;;;;-7.68;77.32;99582.75;5038690;28;20117;-67
2021/12/25 02:46:25;;;;;;;4.75;1.83;;;;;;;-7.75;76.88;99565.53;5038767;28;20609;-67
2021/12/25 02:48:58;;;;;;;2.58;1.58;;;;;;;-7.79;76.57;99568.69;5038627;28;20061;-67
2021/12/25 02:51:30;;;;;;;12.30;1.92;;;;;;;-7.99;76.98;99540.75;5038804;28;20112;-67
2021/12/25 02:54:01;;;;;;;3.38;1.63;;;;;;;-8.35;76.70;99492.66;5038775;28;20076;-66
2021/12/25 02:56:32;;;;;;;6.88;1.40;;;;;;;-7.81;77.10;99566.97;5037583;28;20100;-66
2021/12/25 02:59:03;;;;;;;1.98;1.60;;;;;;;-7.81;76.20;99572.06;5038062;28;20053;-67
2021/12/25 03:01:48;;;;;;;5.60;1.88;;;;;;;-7.79;75.73;99558.56;5038088;28;20108;-68
2021/12/25 03:04:19;;;;;;;2.28;1.52;;;;;;;-7.85;76.14;99544.81;5038243;28;20049;-67
2021/12/25 03:06:52;;;;;;;4.25;1.77;;;;;;;-7.68;76.44;99557.38;5038179;28;20060;-70
2021/12/25 03:09:22;;;;;;;6.68;2.28;;;;;;;-7.75;76.59;99540.16;5038037;28;20344;-68
2021/12/25 03:11:54;;;;;;;4.53;1.70;;;;;;;-7.75;76.98;99560.44;5038038;28;20087;-68
2021/12/25 03:14:33;;;;;;;4.25;2.13;;;;;;;-7.71;77.35;99547.09;5037789;28;20052;-67
2021/12/25 03:17:04;;;;;;;5.95;2.03;;;;;;;-7.61;76.75;99544.19;5033348;28;20099;-68
2021/12/25 03:19:37;;;;;;;3.60;1.50;;;;;;;-7.77;77.24;99529.94;4940257;28;20077;-67
2021/12/25 03:22:09;;;;;;;3.80;2.10;;;;;;;-7.70;77.05;99523.47;5016822;28;20073;-67
2021/12/25 03:24:40;;;;;;;4.13;1.60;;;;;;;-7.65;77.32;99527.06;5015879;28;20058;-67
2021/12/25 03:27:11;;;;;;;3.60;1.50;;;;;;;-7.56;76.92;99535.09;5017630;28;20061;-67
2021/12/25 03:29:42;;;;;;;3.85;2.05;;;;;;;-7.98;76.67;99456.31;5013545;28;20129;-68
2021/12/25 03:32:14;;;;;;;5.60;1.65;;;;;;;-7.56;76.14;99512.28;5012587;28;20046;-68
2021/12/25 03:34:45;;;;;;;7.70;2.17;;;;;;;-7.81;76.61;99480.75;5017918;28;20072;-68
2021/12/25 03:37:17;;;;;;;7.28;2.78;;;;;;;-7.46;77.26;99519.47;5017566;28;20084;-67
2021/12/25 03:39:48;;;;;;;5.15;2.65;;;;;;;-7.48;77.65;99510.91;5017942;28;20056;-67
2021/12/25 03:42:19;;;;;;;6.63;1.63;;;;;;;-7.49;77.23;99524.38;5017570;28;20125;-67
2021/12/25 03:44:50;;;;;;;4.88;1.50;;;;;;;-7.74;76.81;99491.16;5017627;28;20117;-67
2021/12/25 03:47:28;;;;;;;6.18;1.38;;;;;;;-7.71;75.65;99507.38;5011527;28;20109;-67
2021/12/25 03:58:27;;;;;;;2.65;1.30;;;;;;;-7.88;75.21;99504.09;5013634;28;20366;-67
2021/12/25 04:01:03;;;;;;;1.98;1.40;;;;;;;-7.83;75.63;99520.38;5013783;28;20089;-67
2021/12/25 04:03:45;;;;;;;4.13;1.90;;;;;;;-7.81;75.80;99506.13;5014215;28;20247;-66
2021/12/25 04:06:16;;;;;;;5.38;1.70;;;;;;;-7.88;76.14;99493.97;5013874;28;20913;-64
2021/12/25 04:08:51;;;;;;;2.47;1.50;;;;;;;-7.94;76.35;99498.72;5012547;28;20590;-63
2021/12/25 04:11:28;;;;;;;3.17;1.50;;;;;;;-7.96;75.74;99497.81;5013912;28;20054;-64
2021/12/25 04:14:00;;;;;;;5.85;1.58;;;;;;;-8.00;75.05;99513.69;5013642;28;20387;-63
2021/12/25 04:16:31;;;;;;;3.35;1.40;;;;;;;-8.11;75.17;99504.72;5013539;28;20344;-63
2021/12/25 04:19:02;;;;;;;4.05;1.60;;;;;;;-8.15;75.52;99503.72;5013910;28;20041;-64
2021/12/25 04:21:35;;;;;;;2.00;1.35;;;;;;;-8.16;75.60;99501.09;5013676;28;20112;-64
2021/12/25 04:24:08;;;;;;;5.10;2.25;;;;;;;-8.08;75.59;99502.34;5013577;28;20317;-62
2021/12/25 04:26:42;;;;;;;3.50;1.67;;;;;;;-8.77;75.92;99403.78;5013444;28;20546;-66
2021/12/25 04:32:35;;;;;;;1.77;1.33;;;;;;;-8.30;76.55;99506.41;5012082;28;20107;-64
2021/12/25 05:03:10;;;;;;;8.45;1.48;;;;;;;-8.32;76.68;99500.41;5016886;28;20099;-65
2021/12/25 05:05:41;;;;;;;3.33;1.73;;;;;;;-8.36;76.67;99496.00;5016183;28;20073;-63
2021/12/25 05:08:12;;;;;;;6.40;1.88;;;;;;;-8.43;76.58;99473.75;5016466;28;20046;-64
2021/12/25 05:10:43;;;;;;;1.45;1.35;;;;;;;-8.39;76.30;99503.44;5016084;28;20073;-63
2021/12/25 05:13:16;;;;;;;4.78;1.95;;;;;;;-8.42;76.81;99498.28;5015951;28;20081;-63
2021/12/25 05:15:47;;;;;;;4.95;1.92;;;;;;;-8.48;77.10;99500.53;5015979;28;20110;-63
2021/12/25 05:18:18;;;;;;;4.65;1.70;;;;;;;-8.70;77.88;99476.72;5015087;28;20060;-63
2021/12/25 05:20:49;;;;;;;8.23;1.83;;;;;;;-8.91;77.75;99445.31;5015698;28;20089;-63
2021/12/25 05:23:20;;;;;;;5.72;1.90;;;;;;;-8.54;78.09;99507.84;5015651;28;20054;-64
2021/12/25 05:25:51;;;;;;;7.38;2.88;;;;;;;-8.51;78.20;99497.84;5015662;28;20046;-63
2021/12/25 05:28:26;;;;;;;6.05;1.60;;;;;;;-8.49;78.12;99501.31;5015874;28;20053;-64
2021/12/25 05:30:58;;;;;;;4.25;1.90;;;;;;;-8.46;78.20;99501.47;5016214;28;20386;-63
2021/12/25 05:33:29;;;;;;;2.53;1.67;;;;;;;-8.46;77.57;99501.47;5016496;28;20062;-64
2021/12/25 05:35:59;;;;;;;7.25;1.60;;;;;;;-9.30;77.94;99379.34;5016416;28;20245;-63
2021/12/25 05:38:30;;;;;;;6.85;1.70;;;;;;;-8.51;77.80;99500.38;5016248;28;20084;-64
2021/12/25 05:41:01;;;;;;;5.53;1.95;;;;;;;-8.51;77.89;99497.84;5016706;28;20069;-63
2021/12/25 05:43:33;;;;;;;2.80;1.60;;;;;;;-8.58;78.55;99490.78;5016595;28;20120;-63
2021/12/25 05:46:04;;;;;;;4.93;1.52;;;;;;;-8.61;78.51;99485.53;5016483;28;20565;-63
2021/12/25 05:48:36;;;;;;;6.88;2.05;;;;;;;-8.77;78.90;99469.63;5015510;28;20276;-63
2021/12/25 05:51:07;;;;;;;2.15;1.52;;;;;;;-8.82;79.10;99463.47;5016291;28;20049;-62
2021/12/25 05:53:41;;;;;;;4.20;1.70;;;;;;;-8.68;79.04;99489.47;5016439;28;20438;-63
2021/12/25 05:56:11;;;;;;;3.38;1.88;;;;;;;-8.72;78.33;99473.25;5016044;28;20054;-62
2021/12/25 05:58:44;;;;;;;4.88;2.10;;;;;;;-8.63;77.87;99492.22;5015851;28;20313;-63
2021/12/25 06:01:14;;;;;;;8.13;2.60;;;;;;;-8.66;77.90;99476.84;5016006;28;20121;-63
2021/12/25 06:03:46;;;;;;;2.78;1.77;;;;;;;-8.90;77.79;99457.19;5016078;28;20050;-63
2021/12/25 06:06:16;;;;;;;4.78;1.63;;;;;;;-8.66;78.12;99492.06;5015710;28;20050;-63
2021/12/25 06:08:47;;;;;;;4.38;1.67;;;;;;;-8.79;77.61;99476.28;5015756;28;20050;-64
2021/12/25 06:11:18;;;;;;;4.30;2.10;;;;;;;-8.77;77.82;99483.94;5015731;28;20058;-63
2021/12/25 06:14:04;;;;;;;8.48;2.40;;;;;;;-8.75;77.39;99493.34;5015679;28;20303;-63
2021/12/25 06:16:35;;;;;;;3.20;1.60;;;;;;;-8.81;77.87;99480.41;5015560;28;20050;-63
2021/12/25 06:19:07;;;;;;;3.83;1.90;;;;;;;-8.87;78.41;99482.63;5014815;28;20089;-64
2021/12/25 06:21:38;;;;;;;1.85;1.60;;;;;;;-8.86;78.59;99494.53;5015532;28;20321;-63
2021/12/25 06:24:10;;;;;;;6.10;2.08;;;;;;;-8.87;78.58;99492.75;5015518;28;20054;-64
2021/12/25 06:26:41;;;;;;;2.88;1.40;;;;;;;-8.93;77.35;99487.41;5014392;28;20084;-63
2021/12/25 06:29:19;;;;;;;6.35;1.73;;;;;;;-8.97;77.55;99480.47;5014924;28;20121;-63
2021/12/25 06:31:50;;;;;;;8.90;2.20;;;;;;;-8.89;78.52;99489.28;5015085;28;20045;-63
2021/12/25 06:34:21;;;;;;;5.30;2.13;;;;;;;-8.98;78.29;99483.81;5015229;28;20076;-63
2021/12/25 06:36:52;;;;;;;4.47;1.77;;;;;;;-8.92;78.08;99494.22;5012325;28;20064;-64
2021/12/25 06:39:23;;;;;;;5.50;1.80;;;;;;;-9.07;77.80;99473.22;4986207;28;20297;-64
2021/12/25 06:41:54;;;;;;;4.47;1.70;;;;;;;-9.02;77.29;99479.38;5014683;28;20108;-63
2021/12/25 06:44:27;;;;;;;2.42;2.05;;;;;;;-8.99;77.57;99467.72;5015047;28;20995;-64
2021/12/25 06:46:58;;;;;;;6.95;2.80;;;;;;;-9.15;77.79;99450.94;5014810;28;20046;-64
2021/12/25 06:49:29;;;;;;;5.13;2.08;;;;;;;-9.06;77.29;99454.69;5014914;28;20046;-64
2021/12/25 06:52:00;;;;;;;5.93;1.90;;;;;;;-9.13;77.12;99454.41;5013969;28;20053;-64
2021/12/25 06:54:31;;;;;;;6.93;1.73;;;;;;;-9.05;77.55;99464.03;5014717;28;20068;-62
2021/12/25 06:57:03;;;;;;;3.30;2.03;;;;;;;-9.05;77.88;99471.63;5014864;28;20054;-62
2021/12/25 06:59:35;;;;;;;8.50;1.75;;;;;;;-9.01;78.00;99471.88;5014392;28;20113;-61
2021/12/25 07:02:06;;;;;;;6.75;2.10;;;;;;;-9.08;78.91;99466.41;5015113;28;20053;-60
2021/12/25 07:04:37;;;;;;;4.40;1.95;;;;;;;-9.17;79.11;99452.50;5014935;28;20054;-61
2021/12/25 07:07:08;;;;;;;9.02;2.20;;;;;;;-9.01;79.47;99478.56;5014976;28;20050;-64
2021/12/25 07:09:39;;;;;;;7.75;1.77;;;;;;;-9.01;79.52;99474.41;5014852;28;20157;-64
2021/12/25 07:12:10;;;;;;;4.88;2.03;;;;;;;-9.14;79.51;99467.84;5014567;28;20112;-62
2021/12/25 07:14:43;;;;;;;7.50;2.20;;;;;;;-9.09;79.37;99472.28;5014637;28;20439;-63
2021/12/25 07:17:14;;;;;;;5.38;1.85;;;;;;;-8.99;79.10;99472.78;5014188;28;20105;-64
2021/12/25 07:19:44;;;;;;;4.32;1.38;;;;;;;-9.02;78.81;99477.69;5014457;28;20054;-64
2021/12/25 07:22:15;;;;;;;4.25;2.35;;;;;;;-9.12;79.12;99456.13;5014310;28;20069;-64
2021/12/25 07:24:46;;;;;;;6.85;1.92;;;;;;;-8.97;78.74;99475.41;5014387;28;20045;-63
2021/12/25 07:27:17;;;;;;;6.70;1.73;;;;;;;-8.98;79.04;99471.16;5014343;28;20340;-62
2021/12/25 07:29:49;;;;;;;3.97;2.17;;;;;;;-8.95;79.31;99473.81;5014548;28;20256;-62
2021/12/25 07:32:20;;;;;;;7.63;2.42;;;;;;;-8.93;79.01;99472.22;5014218;28;20097;-64
2021/12/25 07:34:51;;;;;;;8.95;2.10;;;;;;;-8.90;79.40;99483.38;5014378;28;20061;-64
2021/12/25 07:37:22;;;;;;;5.90;2.28;;;;;;;-8.89;79.28;99484.22;5014413;28;20061;-63
2021/12/25 07:39:53;;;;;;;7.20;1.92;;;;;;;-8.98;79.75;99468.63;5014099;28;20379;-61
2021/12/25 07:42:23;;;;;;;10.65;2.38;;;;;;;-8.88;79.51;99480.91;5013983;28;20053;-67
2021/12/25 07:45:02;;;;;;;3.17;1.67;;;;;;;-8.87;79.63;99475.03;5014210;28;20077;-68
2021/12/25 07:47:34;;;;;;;5.70;2.00;;;;;;;-8.98;79.63;99463.56;5013987;28;20053;-68
2021/12/25 07:50:07;;;;;;;9.60;2.17;;;;;;;-9.07;80.24;99443.72;5012614;28;20105;-69
2021/12/25 07:52:37;;;;;;;4.10;1.48;;;;;;;-9.12;80.18;99443.47;5012767;28;20057;-67
2021/12/25 07:55:09;;;;;;;5.10;1.73;;;;;;;-9.40;80.29;99400.81;5014288;28;20056;-67
2021/12/25 07:57:40;;;;;;;10.95;2.28;;;;;;;-8.92;80.71;99473.97;5014090;28;20045;-67
2021/12/25 08:00:15;;;;;;;1.73;1.58;;;;;;;-8.96;80.72;99472.06;5013684;28;20072;-66
2021/12/25 08:02:47;;;;;;;10.68;2.33;;;;;;;-9.05;80.88;99466.56;5013617;28;20054;-67
2021/12/25 08:05:19;;;;;;;6.03;2.00;;;;;;;-9.07;80.69;99458.03;5013730;28;20062;-67
2021/12/25 08:07:50;;;;;;;8.25;2.30;;;;;;;-8.92;80.61;99471.44;5013405;28;20054;-66
2021/12/25 08:10:21;;;;;;;8.95;2.00;;;;;;;-8.90;80.11;99477.44;5012953;28;20053;-67
2021/12/25 08:12:55;;;;;;;6.28;2.33;;;;;;;-8.96;80.03;99461.94;5013792;28;20068;-67
2021/12/25 08:15:29;;;;;;;8.30;2.47;;;;;;;-9.52;80.13;99374.06;5013599;28;20071;-67
2021/12/25 08:18:02;;;;;;;5.10;1.83;;;;;;;-9.17;80.12;99432.28;5013537;28;20998;-67
2021/12/25 08:20:34;;;;;;;6.35;1.90;;;;;;;-9.01;80.82;99453.25;5013328;28;20058;-67
2021/12/25 08:23:05;;;;;;;5.35;1.60;;;;;;;-8.98;80.81;99458.50;5013670;28;20050;-67
2021/12/25 08:25:37;;;;;;;4.32;1.75;;;;;;;-9.03;80.85;99454.88;5012535;28;20053;-71
2021/12/25 08:28:08;;;;;;;5.72;2.03;;;;;;;-8.98;80.51;99459.34;5012738;28;20053;-63
2021/12/25 08:30:40;;;;;;;7.43;1.92;;;;;;;-8.90;80.06;99473.22;5012971;28;20046;-61
2021/12/25 08:33:11;;;;;;;12.25;2.60;;;;;;;-8.86;79.59;99469.19;5013789;28;20968;-62
2021/12/25 08:35:42;;;;;;;6.75;2.28;;;;;;;-8.80;78.89;99469.47;5013773;28;20117;-63
2021/12/25 08:38:13;;;;;;;7.95;3.30;;;;;;;-8.94;78.74;99465.41;5039076;23;20084;-78
2021/12/25 08:40:44;;;;;;;7.32;2.67;;;;;;;-9.17;79.54;99462.63;5039686;28;20061;-78
2021/12/25 08:43:16;;;;;;;16.90;5.47;;;;;;;-9.32;79.76;99472.00;5039840;28;20113;-77
2021/12/25 08:46:00;;;;;;;36.35;10.27;;;;;;;-9.52;80.16;99447.38;5037868;28;20049;-80
2021/12/25 08:48:32;;;;;;;44.15;11.90;;;;;;;-9.56;80.47;99462.41;5039618;28;20128;-78
2021/12/25 08:51:03;;;;;;;19.27;5.75;;;;;;;-9.57;80.31;99465.72;5039939;28;20104;-77
2021/12/25 08:53:34;;;;;;;35.85;10.88;;;;;;;-9.60;80.18;99470.63;5027895;28;20060;-81
2021/12/25 08:56:05;;;;;;;22.73;7.60;;;;;;;-9.67;79.66;99463.53;5040133;28;20048;-81
2021/12/25 08:58:36;;;;;;;28.35;9.00;;;;;;;-9.67;79.13;99472.78;5039706;28;20112;-78
2021/12/25 09:01:09;;;;;;;24.60;7.40;;;;;;;-9.71;78.97;99466.66;5039942;28;20065;-78
2021/12/25 09:03:40;;;;;;;48.70;14.25;;;;;;;-9.87;79.20;99449.00;5039893;28;20048;-79
2021/12/25 09:06:10;;;;;;;13.52;4.05;;;;;;;-9.75;79.42;99464.78;5020275;28;20101;-81
2021/12/25 09:08:41;;;;;;;22.58;6.93;;;;;;;-9.79;79.25;99467.94;5039300;28;20129;-81
2021/12/25 09:11:12;;;;;;;6.30;2.67;;;;;;;-9.77;78.94;99476.47;5036217;28;20053;-81
2021/12/25 09:13:44;;;;;;;6.00;2.70;;;;;;;-9.81;78.48;99469.53;5039828;28;20057;-81
2021/12/25 09:16:16;;;;;;;5.60;2.28;;;;;;;-10.02;79.01;99439.81;5040393;28;20042;-81
2021/12/25 09:18:48;;;;;;;4.97;1.83;;;;;;;-9.87;79.70;99469.22;5039130;28;20105;-81
2021/12/25 09:21:20;;;;;;;8.05;2.53;;;;;;;-9.93;79.26;99463.81;5038323;28;20050;-82
2021/12/25 09:23:51;;;;;;;6.97;2.75;;;;;;;-9.85;79.45;99462.59;5031747;28;20497;-83
2021/12/25 09:26:22;;;;;;;5.65;2.42;;;;;;;-9.84;78.99;99464.31;5039402;28;20053;-82
2021/12/25 09:28:52;;;;;;;4.15;1.90;;;;;;;-9.85;78.56;99462.59;5037242;28;20503;-83
2021/12/25 09:31:26;;;;;;;5.57;2.08;;;;;;;-9.95;78.72;99465.44;5041523;28;20073;-83
2021/12/25 09:33:59;;;;;;;10.60;3.58;;;;;;;-9.93;79.03;99453.72;5042582;28;20081;-84
2021/12/25 09:36:31;;;;;;;3.95;2.53;;;;;;;-10.13;79.35;99440.94;5039833;28;20056;-85
2021/12/25 09:39:13;;;;;;;7.38;2.90;;;;;;;-10.06;79.27;99465.75;5039477;28;20076;-83
2021/12/25 09:41:47;;;;;;;2.17;1.83;;;;;;;-10.03;79.50;99465.91;5040151;28;20099;-78
2021/12/25 09:44:18;;;;;;;5.00;1.70;;;;;;;-10.08;79.52;99464.78;5038024;28;20143;-78
2021/12/25 09:46:52;;;;;;;3.00;2.15;;;;;;;-10.09;79.46;99457.97;5039635;28;20056;-78
2021/12/25 09:49:22;;;;;;;7.28;2.42;;;;;;;-10.10;79.36;99456.25;5042152;28;20396;-78
2021/12/25 09:51:53;;;;;;;2.70;2.00;;;;;;;-10.10;79.22;99456.25;5041567;28;20095;-77
2021/12/25 09:54:28;;;;;;;4.97;2.13;;;;;;;-10.26;78.64;99443.59;5037233;28;20139;-77
2021/12/25 09:56:59;;;;;;;5.05;2.38;;;;;;;-10.22;78.00;99440.44;5041815;28;20430;-76
2021/12/25 09:59:31;;;;;;;4.15;2.10;;;;;;;-10.04;77.39;99456.56;5041264;28;20057;-75
2021/12/25 10:02:04;;;;;;;6.40;2.30;;;;;;;-10.07;76.67;99456.41;5041617;28;20048;-75
2021/12/25 10:04:38;;;;;;;5.47;2.33;;;;;;;-10.09;76.81;99452.06;5039957;28;20041;-77
2021/12/25 10:07:23;;;;;;;7.32;2.50;;;;;;;-10.10;77.85;99461.31;5039891;28;20053;-79
2021/12/25 10:10:00;;;;;;;3.25;1.90;;;;;;;-10.17;78.12;99455.84;5040325;28;20060;-79
2021/12/25 10:12:38;;;;;;;2.30;1.90;;;;;;;-10.22;78.41;99455.59;5039903;28;20051;-79
2021/12/25 10:15:10;;;;;;;7.70;2.33;;;;;;;-10.24;78.42;99452.13;5039466;28;20042;-79
2021/12/25 10:17:56;;;;;;;6.20;2.75;;;;;;;-10.30;78.49;99456.91;5041681;28;20072;-81
2021/12/25 10:20:28;;;;;;;2.88;2.15;;;;;;;-10.43;78.05;99441.09;5039160;28;20064;-82
2021/12/25 10:23:05;;;;;;;4.15;2.47;;;;;;;-10.56;77.90;99413.44;5041282;28;20582;-80
2021/12/25 10:25:43;;;;;;;2.63;1.80;;;;;;;-10.69;77.34;99421.16;5041487;28;20048;-82
2021/12/25 10:28:15;;;;;;;2.25;1.85;;;;;;;-10.32;77.46;99453.41;5040577;28;20081;-82
2021/12/25 10:30:49;;;;;;;5.13;2.33;;;;;;;-10.29;77.03;99458.63;5037887;28;20346;-82
2021/12/25 10:33:34;;;;;;;4.25;2.00;;;;;;;-10.38;76.68;99448.03;5038508;28;20049;-82
2021/12/25 10:36:09;;;;;;;2.17;1.95;;;;;;;-10.32;76.18;99466.06;5038870;28;20049;-79
2021/12/25 10:38:41;;;;;;;5.90;3.25;;;;;;;-10.31;75.46;99461.06;5040800;28;20057;-83
2021/12/25 10:41:22;;;;;;;4.15;1.83;;;;;;;-10.31;74.06;99465.25;5041325;28;20071;-82
2021/12/25 10:44:10;;;;;;;2.53;1.75;;;;;;;-10.29;73.02;99448.53;5040564;28;20049;-82
2021/12/25 10:47:00;;;;;;;11.63;2.05;;;;;;;-10.24;72.05;99460.56;5040729;28;20112;-81
2021/12/25 10:49:35;;;;;;;3.67;2.13;;;;;;;-10.23;72.62;99469.91;5040736;28;20081;-81
2021/12/25 10:52:13;;;;;;;5.43;2.22;;;;;;;-10.51;72.43;99427.16;5038537;28;20451;-82
2021/12/25 10:54:48;;;;;;;6.50;1.90;;;;;;;-10.34;72.13;99470.16;5035885;28;20077;-82
2021/12/25 10:57:37;;;;;;;4.93;1.92;;;;;;;-10.52;71.69;99459.94;5041473;28;20081;-82
2021/12/25 11:00:11;;;;;;;3.05;1.40;;;;;;;-10.47;71.87;99464.44;5041243;28;20049;-83
2021/12/25 11:02:49;;;;;;;3.65;1.60;;;;;;;-10.63;71.70;99441.69;5040980;28;20041;-83
2021/12/25 11:05:24;;;;;;;5.63;2.00;;;;;;;-10.50;71.00;99464.28;5039510;28;20337;-83
2021/12/25 11:08:06;;;;;;;3.25;1.80;;;;;;;-10.69;69.78;99416.09;5038678;28;20041;-84
2021/12/25 11:10:45;;;;;;;3.13;1.70;;;;;;;-10.88;69.02;99384.81;5038738;28;20064;-82
2021/12/25 11:13:21;;;;;;;2.05;1.88;;;;;;;-10.50;68.85;99469.31;5036720;28;20042;-83
2021/12/25 11:16:00;;;;;;;2.13;1.75;;;;;;;-10.57;69.31;99471.44;5036784;28;20361;-83
2021/12/25 11:18:53;;;;;;;4.70;2.55;;;;;;;-11.00;68.32;99413.56;5037852;28;20057;-82
2021/12/25 11:21:25;;;;;;;4.60;2.45;;;;;;;-10.75;67.51;99466.25;5040362;28;20053;-83
2021/12/25 11:24:09;;;;;;;5.40;2.95;;;;;;;-10.80;67.67;99465.13;5039558;28;20041;-84
2021/12/25 11:27:00;;;;;;;3.92;1.88;;;;;;;-10.83;67.00;99482.59;5038015;28;20049;-84
2021/12/25 11:36:12;;;;;;;2.08;1.75;;;;;;;-11.82;66.38;99356.06;4973449;28;20082;-84
2021/12/25 11:38:48;;;;;;;2.03;1.75;;;;;;;-11.06;66.13;99469.56;4979245;28;20105;-85
2021/12/25 11:41:19;;;;;;;1.90;1.65;;;;;;;-11.18;65.52;99461.31;4973338;28;20370;-82
2021/12/25 11:43:54;;;;;;;1.63;1.52;;;;;;;-11.13;65.63;99482.63;4979032;28;20246;-84
2021/12/25 11:46:40;;;;;;;4.18;2.05;;;;;;;-11.29;65.78;99461.56;4977312;28;20086;-83
2021/12/25 11:49:15;;;;;;;3.15;1.80;;;;;;;-11.21;65.41;99487.22;4976624;28;20098;-86
2021/12/25 11:51:50;;;;;;;2.00;1.80;;;;;;;-11.23;66.08;99485.41;4979039;28;20042;-86
2021/12/25 11:54:59;;;;;;;2.10;1.90;;;;;;;-11.27;64.64;99486.03;4976918;28;20050;-86
2021/12/25 11:57:57;;;;;;;1.85;1.70;;;;;;;-11.74;64.33;99405.22;4974449;28;20307;-86
2021/12/25 12:00:42;;;;;;;2.40;2.20;;;;;;;-11.40;64.47;99487.84;4975041;28;20089;-84
2021/12/25 12:03:41;;;;;;;1.90;1.80;;;;;;;-11.49;64.75;99477.22;4990068;28;20069;-84
2021/12/25 12:06:14;;;;;;;1.63;1.52;;;;;;;-11.67;64.55;99450.97;5035752;28;20355;-84
2021/12/25 12:09:09;;;;;;;2.05;1.80;;;;;;;-11.51;64.73;99478.78;5010560;28;20120;-82
2021/12/25 12:11:44;;;;;;;1.83;1.70;;;;;;;-11.72;64.97;99433.91;5041102;28;20353;-81
2021/12/25 12:14:18;;;;;;;1.63;1.52;;;;;;;-11.52;64.29;99482.09;5037611;28;20056;-80
2021/12/25 12:16:51;;;;;;;2.42;1.75;;;;;;;-11.73;63.98;99447.31;5036060;28;20050;-80
2021/12/25 12:19:47;;;;;;;3.42;1.73;;;;;;;-11.60;64.34;99465.66;5039317;28;20073;-80
2021/12/25 12:23:03;;;;;;;1.70;1.60;;;;;;;-11.82;63.71;99461.88;5024817;28;20339;-80
2021/12/25 12:25:59;;;;;;;2.88;1.67;;;;;;;-11.62;64.12;99474.78;5037364;28;20084;-81
2021/12/25 12:28:52;;;;;;;2.30;1.88;;;;;;;-11.67;64.50;99477.03;5039198;28;20055;-81
2021/12/25 12:31:44;;;;;;;5.38;1.77;;;;;;;-11.95;64.56;99431.75;5038835;28;20057;-81
2021/12/25 12:34:37;;;;;;;3.88;1.70;;;;;;;-11.70;64.68;99470.91;5032037;28;20050;-80
2021/12/25 12:37:28;;;;;;;2.65;1.85;;;;;;;-11.76;65.01;99477.34;5039171;28;20108;-80
2021/12/25 12:40:25;;;;;;;2.25;1.80;;;;;;;-11.80;64.80;99480.47;5039402;28;20077;-80
2021/12/25 12:43:02;;;;;;;1.67;1.58;;;;;;;-11.84;65.13;99477.69;5029956;28;20061;-79
2021/12/25 12:45:37;;;;;;;3.47;1.77;;;;;;;-12.05;65.45;99432.84;5036093;28;20105;-80
2021/12/25 12:48:16;;;;;;;2.63;1.80;;;;;;;-11.97;65.62;99461.00;5039119;28;20079;-79
2021/12/25 12:50:50;;;;;;;1.63;1.55;;;;;;;-12.02;65.42;99472.44;5038977;28;20060;-80
2021/12/25 12:53:22;;;;;;;2.90;2.03;;;;;;;-12.46;64.99;99393.44;5039076;28;20124;-79
2021/12/25 12:55:55;;;;;;;2.08;1.75;;;;;;;-12.02;65.36;99497.63;5036872;28;20042;-79
2021/12/25 12:58:27;;;;;;;2.20;2.00;;;;;;;-12.05;65.17;99463.06;5043219;28;20045;-78
2021/12/25 13:01:02;;;;;;;2.05;1.90;;;;;;;-12.00;64.62;99470.91;5043249;28;20109;-79
2021/12/25 13:03:33;;;;;;;2.15;1.60;;;;;;;-12.05;64.84;99472.28;5040799;28;20209;-79
2021/12/25 13:06:14;;;;;;;1.95;1.83;;;;;;;-12.10;65.25;99461.03;5041770;28;20135;-79
2021/12/25 13:08:46;;;;;;;3.53;1.90;;;;;;;-12.10;65.54;99463.53;5041848;28;20108;-79
2021/12/25 13:11:23;;;;;;;2.10;1.80;;;;;;;-12.13;65.74;99463.38;5040537;28;20128;-79